Terminal Aerodrome Forecast
Issued by NWS Omaha/Valley, NE

Home | Current Version | Previous Version | Text Only | Print | Product List | Glossary On
Versions: 1 2 3 4 5 6 7 8 9 10 11 12 13 14 15 16 17 18 19 20 21 22 23 24 25 26 27 28
081
FTUS43 KOAX 261128
TAFOMA
TAF
KOMA 261128Z 2612/2712 17005KT P6SM BKN250
     FM261500 22010KT P6SM BKN200
     FM261800 31010KT P6SM BKN150
     FM262000 34015G28KT P6SM BKN120
     FM270130 34011KT P6SM SKC
     FM270500 33006KT P6SM SKC=

USA.gov is the U.S. government's official web portal to all federal, state and local government web resources and services.